Time;durP1;ratioP1;P1;durP2;ratioP2;P2;SDS_P1;SDS_P2;PMS_P1;PMS_P2;Temp;Humidity;BMP_temperature;BMP_pressure;BME280_temperature;BME280_humidity;BME280_pressure;Samples;Min_cycle;Max_cycle;Signal;HPM_P1;HPM_P2
2023/09/18 00:01:43;;;;;;;5.88;3.17;;;;;;;;;;5129780;28;20202;-92
2023/09/18 00:04:12;;;;;;;3.35;2.78;;;;;;;;;;5132152;27;20231;-92
2023/09/18 00:06:39;;;;;;;4.28;3.08;;;;;;;;;;5132628;27;20206;-93
2023/09/18 00:09:11;;;;;;;3.50;3.08;;;;;;;;;;5130709;27;20246;-91
2023/09/18 00:11:39;;;;;;;2.90;2.70;;;;;;;;;;5129027;28;20219;-93
2023/09/18 00:14:06;;;;;;;4.93;4.13;;;;;;;;;;5129387;28;20199;-92
2023/09/18 00:16:35;;;;;;;3.70;3.40;;;;;;;;;;5129959;27;20215;-91
2023/09/18 00:19:03;;;;;;;3.20;2.90;;;;;;;;;;5128855;27;20291;-91
2023/09/18 00:21:31;;;;;;;3.28;3.08;;;;;;;;;;5132084;27;20271;-92
2023/09/18 00:23:58;;;;;;;3.40;3.20;;;;;;;;;;5135662;27;20203;-91
2023/09/18 00:26:27;;;;;;;3.03;2.78;;;;;;;;;;5128486;28;20227;-91
2023/09/18 00:28:54;;;;;;;4.65;3.08;;;;;;;;;;5127510;28;20247;-92
2023/09/18 00:31:22;;;;;;;3.00;2.80;;;;;;;;;;5127657;28;20237;-92
2023/09/18 00:33:51;;;;;;;4.88;4.28;;;;;;;;;;5128273;28;20203;-92
2023/09/18 00:36:18;;;;;;;3.30;3.00;;;;;;;;;;5129651;28;20199;-92
2023/09/18 00:38:47;;;;;;;3.45;3.15;;;;;;;;;;5128073;28;20446;-93
2023/09/18 00:41:14;;;;;;;5.68;3.25;;;;;;;;;;5128646;28;20233;-92
2023/09/18 00:43:42;;;;;;;3.20;3.00;;;;;;;;;;5130294;28;20258;-93
2023/09/18 00:46:10;;;;;;;3.42;3.13;;;;;;;;;;5128906;28;20267;-92
2023/09/18 00:48:38;;;;;;;3.47;3.28;;;;;;;;;;5129810;28;20288;-92
2023/09/18 00:51:07;;;;;;;3.80;3.50;;;;;;;;;;5131190;28;20215;-93
2023/09/18 00:53:34;;;;;;;4.53;3.42;;;;;;;;;;5131281;28;20191;-91
2023/09/18 00:56:02;;;;;;;3.13;2.90;;;;;;;;;;5129889;28;20697;-92
2023/09/18 00:58:30;;;;;;;3.30;3.10;;;;;;;;;;5128291;28;20232;-91
2023/09/18 01:00:57;;;;;;;3.67;3.38;;;;;;;;;;5131312;28;20216;-91
2023/09/18 01:03:25;;;;;;;3.50;3.20;;;;;;;;;;5128984;28;20207;-92
2023/09/18 01:05:54;;;;;;;3.28;3.00;;;;;;;;;;5130010;28;20275;-92
2023/09/18 01:08:23;;;;;;;3.28;2.97;;;;;;;;;;5130855;28;20250;-91
2023/09/18 01:11:05;;;;;;;2.92;2.67;;;;;;;;;;5131736;28;20280;-92
2023/09/18 01:13:38;;;;;;;3.47;3.20;;;;;;;;;;5132385;28;20198;-92
2023/09/18 01:16:11;;;;;;;3.42;3.00;;;;;;;;;;5130829;28;20219;-93
2023/09/18 01:18:39;;;;;;;2.83;2.63;;;;;;;;;;5131714;28;20228;-91
2023/09/18 01:21:06;;;;;;;2.67;2.47;;;;;;;;;;5132319;28;20215;-91
2023/09/18 01:23:35;;;;;;;3.05;2.80;;;;;;;;;;5135743;28;20195;-92
2023/09/18 01:26:03;;;;;;;2.75;2.55;;;;;;;;;;5132742;28;20199;-92
2023/09/18 01:28:31;;;;;;;3.72;2.90;;;;;;;;;;5135295;27;20235;-92
2023/09/18 01:30:58;;;;;;;2.40;2.20;;;;;;;;;;5134332;27;20244;-91
2023/09/18 01:33:27;;;;;;;2.05;1.95;;;;;;;;;;5134198;27;20215;-92
2023/09/18 01:35:56;;;;;;;2.65;2.42;;;;;;;;;;5134235;28;20192;-92
2023/09/18 01:38:25;;;;;;;2.75;2.25;;;;;;;;;;5134214;28;20238;-91
2023/09/18 01:40:55;;;;;;;5.43;3.08;;;;;;;;;;5135128;27;20207;-92
2023/09/18 01:43:22;;;;;;;2.47;2.25;;;;;;;;;;5134613;27;20219;-93
2023/09/18 01:45:50;;;;;;;3.38;3.08;;;;;;;;;;5135492;27;20216;-91
2023/09/18 01:48:18;;;;;;;2.08;1.98;;;;;;;;;;5135086;27;20219;-92
2023/09/18 01:50:46;;;;;;;3.75;2.83;;;;;;;;;;5135765;27;20195;-91
2023/09/18 01:53:13;;;;;;;5.38;2.63;;;;;;;;;;5134279;28;20187;-91
2023/09/18 01:55:41;;;;;;;4.78;3.13;;;;;;;;;;5134316;28;20191;-92
2023/09/18 01:58:10;;;;;;;2.90;2.70;;;;;;;;;;5135718;28;20287;-91
2023/09/18 02:00:38;;;;;;;3.20;2.92;;;;;;;;;;5134014;28;20214;-92
2023/09/18 02:03:05;;;;;;;2.13;2.03;;;;;;;;;;5134083;28;20263;-93
2023/09/18 02:05:33;;;;;;;2.60;2.40;;;;;;;;;;5133002;28;20242;-92
2023/09/18 02:08:01;;;;;;;1.95;1.80;;;;;;;;;;5132358;28;20204;-92
2023/09/18 02:10:28;;;;;;;2.30;2.10;;;;;;;;;;5132007;28;20215;-92
2023/09/18 02:12:56;;;;;;;2.67;2.47;;;;;;;;;;5133024;28;20279;-93
2023/09/18 02:15:25;;;;;;;2.50;2.13;;;;;;;;;;5133280;28;20200;-92
2023/09/18 02:17:53;;;;;;;2.55;2.35;;;;;;;;;;5132843;28;20206;-91
2023/09/18 02:20:21;;;;;;;2.13;1.92;;;;;;;;;;5133778;28;20661;-92
2023/09/18 02:22:48;;;;;;;1.70;1.60;;;;;;;;;;5138495;28;20215;-92
2023/09/18 02:25:16;;;;;;;1.65;1.55;;;;;;;;;;5136000;28;20207;-93
2023/09/18 02:27:43;;;;;;;1.95;1.80;;;;;;;;;;5133684;28;20196;-91
2023/09/18 02:30:13;;;;;;;2.10;1.98;;;;;;;;;;5135511;28;20262;-90
2023/09/18 02:32:41;;;;;;;2.28;2.08;;;;;;;;;;5137262;28;20223;-91
2023/09/18 02:35:09;;;;;;;2.72;2.53;;;;;;;;;;5136555;28;20219;-92
2023/09/18 02:37:37;;;;;;;2.75;2.55;;;;;;;;;;5135413;28;20196;-92
2023/09/18 02:40:07;;;;;;;2.63;2.42;;;;;;;;;;5136493;28;20243;-92
2023/09/18 02:42:35;;;;;;;3.10;2.90;;;;;;;;;;5135764;28;20211;-92
2023/09/18 02:45:02;;;;;;;3.00;2.75;;;;;;;;;;5137353;28;20192;-91
2023/09/18 02:47:30;;;;;;;2.90;2.70;;;;;;;;;;5136622;28;20188;-90
2023/09/18 02:49:59;;;;;;;2.65;2.45;;;;;;;;;;5136235;28;20216;-92
2023/09/18 02:52:26;;;;;;;2.17;1.95;;;;;;;;;;5135221;28;20243;-93
2023/09/18 02:54:54;;;;;;;2.83;2.25;;;;;;;;;;5135760;28;20230;-91
2023/09/18 02:57:22;;;;;;;2.75;2.55;;;;;;;;;;5135752;28;20199;-92
2023/09/18 02:59:49;;;;;;;2.72;2.53;;;;;;;;;;5134487;28;20216;-92
2023/09/18 03:02:17;;;;;;;2.20;2.10;;;;;;;;;;5131567;28;20219;-91
2023/09/18 03:04:45;;;;;;;2.55;2.35;;;;;;;;;;5127036;27;20267;-91
2023/09/18 03:07:16;;;;;;;2.28;2.08;;;;;;;;;;5129297;27;20203;-90
2023/09/18 03:09:44;;;;;;;2.47;2.28;;;;;;;;;;5129608;27;20206;-91
2023/09/18 03:12:11;;;;;;;2.90;2.70;;;;;;;;;;5129582;27;20219;-90
2023/09/18 03:14:39;;;;;;;4.28;2.30;;;;;;;;;;5128444;28;20191;-90
2023/09/18 03:17:07;;;;;;;2.40;2.20;;;;;;;;;;5128230;28;20221;-92
2023/09/18 03:19:34;;;;;;;2.47;2.30;;;;;;;;;;5125565;28;20251;-90
2023/09/18 03:22:02;;;;;;;2.25;2.15;;;;;;;;;;5128016;27;20210;-92
2023/09/18 03:24:31;;;;;;;1.85;1.75;;;;;;;;;;5128455;27;20218;-90
2023/09/18 03:26:58;;;;;;;2.10;2.00;;;;;;;;;;5122734;28;20203;-92
2023/09/18 03:29:26;;;;;;;1.60;1.50;;;;;;;;;;5122818;28;20323;-92
2023/09/18 03:31:57;;;;;;;1.98;1.88;;;;;;;;;;5124450;28;20218;-90
2023/09/18 03:34:26;;;;;;;1.85;1.75;;;;;;;;;;5125395;28;20257;-92
2023/09/18 03:36:54;;;;;;;2.00;1.90;;;;;;;;;;5123990;28;20360;-92
2023/09/18 03:39:22;;;;;;;2.08;1.98;;;;;;;;;;5123853;28;20246;-91
2023/09/18 03:41:51;;;;;;;1.83;1.65;;;;;;;;;;5123530;28;20204;-91
2023/09/18 03:44:18;;;;;;;2.60;2.40;;;;;;;;;;5124639;28;20247;-91
2023/09/18 03:46:46;;;;;;;1.27;1.27;;;;;;;;;;5123319;28;20234;-92
2023/09/18 03:49:13;;;;;;;1.80;1.70;;;;;;;;;;5121376;28;20282;-92
2023/09/18 03:51:41;;;;;;;2.53;2.22;;;;;;;;;;5123253;28;20271;-93
2023/09/18 03:54:09;;;;;;;2.20;2.10;;;;;;;;;;5123016;28;20223;-94
2023/09/18 03:56:36;;;;;;;2.40;2.20;;;;;;;;;;5126394;28;20207;-91
2023/09/18 03:59:05;;;;;;;2.25;2.10;;;;;;;;;;5121592;28;20227;-91
2023/09/18 04:01:33;;;;;;;2.00;1.90;;;;;;;;;;5128510;28;20288;-92
2023/09/18 04:04:02;;;;;;;2.13;2.00;;;;;;;;;;5134559;28;20215;-92
2023/09/18 04:06:38;;;;;;;2.50;2.40;;;;;;;;;;5135043;28;20204;-93
2023/09/18 04:09:06;;;;;;;2.80;2.53;;;;;;;;;;5134406;28;20215;-92
2023/09/18 04:11:34;;;;;;;2.63;2.50;;;;;;;;;;5132317;28;20211;-92
2023/09/18 04:14:03;;;;;;;2.65;2.45;;;;;;;;;;5135433;28;20235;-92
2023/09/18 04:16:35;;;;;;;4.30;2.70;;;;;;;;;;5134270;28;20183;-92
2023/09/18 04:19:03;;;;;;;2.63;2.42;;;;;;;;;;5136267;28;20231;-93
2023/09/18 04:21:30;;;;;;;2.78;2.58;;;;;;;;;;5137856;28;20214;-91
2023/09/18 04:23:58;;;;;;;2.83;2.63;;;;;;;;;;5138140;28;20202;-92
2023/09/18 04:26:29;;;;;;;3.72;3.08;;;;;;;;;;5137443;28;20192;-92
2023/09/18 04:28:57;;;;;;;3.03;2.83;;;;;;;;;;5136098;28;20223;-92
2023/09/18 04:31:24;;;;;;;2.60;2.45;;;;;;;;;;5136571;28;20231;-92
2023/09/18 04:33:53;;;;;;;3.42;3.17;;;;;;;;;;5136559;27;20219;-90
2023/09/18 04:36:21;;;;;;;3.03;2.83;;;;;;;;;;5137972;27;20183;-91
2023/09/18 04:38:48;;;;;;;2.70;2.50;;;;;;;;;;5137737;27;20215;-91
2023/09/18 04:41:17;;;;;;;3.13;2.67;;;;;;;;;;5137272;27;20180;-92
2023/09/18 04:43:44;;;;;;;3.30;3.10;;;;;;;;;;5138193;28;20208;-92
2023/09/18 04:46:12;;;;;;;3.05;2.85;;;;;;;;;;5138151;28;20192;-90
2023/09/18 04:48:43;;;;;;;3.40;2.65;;;;;;;;;;5136451;27;20229;-92
2023/09/18 04:51:12;;;;;;;2.72;2.53;;;;;;;;;;5135341;27;20204;-92
2023/09/18 04:53:40;;;;;;;2.60;2.40;;;;;;;;;;5134758;27;20274;-91
2023/09/18 04:56:10;;;;;;;3.28;3.05;;;;;;;;;;5135132;28;20564;-92
2023/09/18 04:58:38;;;;;;;2.45;2.25;;;;;;;;;;5134666;27;20226;-92
2023/09/18 05:01:06;;;;;;;3.63;2.70;;;;;;;;;;5139966;27;20190;-91
2023/09/18 05:03:35;;;;;;;3.13;2.83;;;;;;;;;;5140539;28;20207;-91
2023/09/18 05:06:04;;;;;;;2.58;2.47;;;;;;;;;;5140547;27;20206;-92
2023/09/18 05:08:32;;;;;;;2.60;2.40;;;;;;;;;;5139726;28;20296;-90
2023/09/18 05:11:00;;;;;;;3.20;2.92;;;;;;;;;;5140736;28;20214;-92
2023/09/18 05:13:28;;;;;;;2.53;2.33;;;;;;;;;;5140460;27;20215;-92
2023/09/18 05:15:55;;;;;;;2.45;2.28;;;;;;;;;;5139368;28;20179;-92
2023/09/18 05:18:23;;;;;;;2.42;2.20;;;;;;;;;;5139865;28;20233;-93
2023/09/18 05:20:51;;;;;;;2.83;2.60;;;;;;;;;;5140186;28;20188;-91
2023/09/18 05:23:19;;;;;;;2.95;2.67;;;;;;;;;;5141270;28;20192;-90
2023/09/18 05:25:47;;;;;;;2.72;2.53;;;;;;;;;;5140865;28;20302;-91
2023/09/18 05:28:15;;;;;;;2.53;2.40;;;;;;;;;;5140010;28;20223;-92
2023/09/18 05:30:43;;;;;;;2.85;2.65;;;;;;;;;;5140262;27;20187;-92
2023/09/18 05:33:10;;;;;;;3.20;2.53;;;;;;;;;;5139938;27;20199;-91
2023/09/18 05:35:41;;;;;;;2.50;2.30;;;;;;;;;;5139705;28;20192;-91
2023/09/18 05:38:09;;;;;;;2.50;2.28;;;;;;;;;;5140451;28;20235;-91
2023/09/18 05:40:37;;;;;;;2.63;2.20;;;;;;;;;;5139104;28;20188;-91
2023/09/18 05:43:07;;;;;;;3.60;2.90;;;;;;;;;;5140175;28;20172;-91
2023/09/18 05:45:34;;;;;;;3.42;3.13;;;;;;;;;;5141089;28;20199;-91
2023/09/18 05:48:03;;;;;;;2.60;2.40;;;;;;;;;;5140171;28;20183;-92
2023/09/18 05:50:32;;;;;;;2.80;2.58;;;;;;;;;;5140207;28;20204;-91
2023/09/18 05:53:03;;;;;;;2.63;2.42;;;;;;;;;;5139297;28;20195;-91
2023/09/18 05:55:31;;;;;;;2.80;2.60;;;;;;;;;;5137647;28;20249;-92
2023/09/18 05:57:59;;;;;;;2.80;2.60;;;;;;;;;;5139924;27;20199;-91
2023/09/18 06:00:30;;;;;;;3.13;2.83;;;;;;;;;;5139664;28;20277;-92
2023/09/18 06:02:58;;;;;;;2.92;2.72;;;;;;;;;;5136895;28;20263;-90
2023/09/18 06:05:26;;;;;;;2.38;2.10;;;;;;;;;;5138372;27;20255;-92
2023/09/18 06:07:54;;;;;;;2.78;2.58;;;;;;;;;;5138321;28;20298;-91
2023/09/18 06:10:21;;;;;;;2.42;2.22;;;;;;;;;;5137239;28;20184;-93
2023/09/18 06:12:49;;;;;;;2.78;2.58;;;;;;;;;;5137550;28;20218;-92
2023/09/18 06:15:16;;;;;;;2.17;1.98;;;;;;;;;;5139821;28;20223;-92
2023/09/18 06:17:45;;;;;;;2.75;2.55;;;;;;;;;;5139504;28;20195;-92
2023/09/18 06:20:15;;;;;;;2.22;2.13;;;;;;;;;;5138845;28;20214;-91
2023/09/18 06:22:43;;;;;;;2.85;2.55;;;;;;;;;;5140330;27;20208;-91
2023/09/18 06:25:11;;;;;;;2.15;2.05;;;;;;;;;;5140277;27;20199;-91
2023/09/18 06:27:39;;;;;;;2.10;1.90;;;;;;;;;;5139984;28;20187;-91
2023/09/18 06:30:09;;;;;;;2.75;2.55;;;;;;;;;;5139068;27;20207;-90
2023/09/18 06:32:37;;;;;;;2.85;2.28;;;;;;;;;;5138587;27;20226;-92
2023/09/18 06:35:07;;;;;;;2.95;2.75;;;;;;;;;;5138968;28;20264;-92
2023/09/18 06:37:35;;;;;;;2.95;2.75;;;;;;;;;;5137013;28;20207;-92
2023/09/18 06:40:05;;;;;;;1.88;1.67;;;;;;;;;;5137475;27;20238;-91
2023/09/18 06:42:33;;;;;;;3.22;1.92;;;;;;;;;;5137202;27;20255;-91
2023/09/18 06:45:01;;;;;;;2.75;2.38;;;;;;;;;;5137664;27;20222;-91
2023/09/18 06:47:28;;;;;;;3.80;2.67;;;;;;;;;;5137954;27;20194;-92
2023/09/18 06:49:56;;;;;;;3.95;2.13;;;;;;;;;;5138474;27;20226;-92
2023/09/18 06:52:26;;;;;;;2.85;1.67;;;;;;;;;;5137785;28;20227;-92
2023/09/18 06:54:54;;;;;;;2.80;2.22;;;;;;;;;;5136363;28;20218;-92
2023/09/18 06:57:21;;;;;;;4.50;2.20;;;;;;;;;;5139301;28;20204;-92
2023/09/18 06:59:49;;;;;;;3.72;2.33;;;;;;;;;;5138601;28;20210;-92
2023/09/18 07:02:16;;;;;;;3.25;2.80;;;;;;;;;;5138064;27;20188;-91
2023/09/18 07:04:45;;;;;;;4.03;2.17;;;;;;;;;;5137226;28;20215;-93
2023/09/18 07:07:13;;;;;;;8.18;2.83;;;;;;;;;;5136256;28;20274;-91
2023/09/18 07:09:43;;;;;;;4.30;2.67;;;;;;;;;;5135730;28;20215;-92
2023/09/18 07:12:10;;;;;;;5.07;2.03;;;;;;;;;;5135472;28;20188;-92
2023/09/18 07:14:38;;;;;;;6.63;2.50;;;;;;;;;;5137316;28;20211;-93
2023/09/18 07:17:06;;;;;;;4.68;2.20;;;;;;;;;;5136365;28;20191;-92
2023/09/18 07:19:33;;;;;;;3.35;1.85;;;;;;;;;;5135845;28;20243;-92
2023/09/18 07:22:02;;;;;;;2.78;2.25;;;;;;;;;;5137531;27;20206;-92
2023/09/18 07:24:29;;;;;;;2.80;2.10;;;;;;;;;;5137804;27;20247;-92
2023/09/18 07:26:59;;;;;;;3.15;1.77;;;;;;;;;;5136318;27;20230;-93
2023/09/18 07:29:27;;;;;;;3.60;2.05;;;;;;;;;;5135311;27;20273;-91
2023/09/18 07:31:54;;;;;;;4.35;2.30;;;;;;;;;;5135690;27;20230;-93
2023/09/18 07:34:22;;;;;;;6.43;3.80;;;;;;;;;;5137804;27;20195;-92
2023/09/18 07:36:54;;;;;;;2.72;1.70;;;;;;;;;;5133422;27;20204;-93
2023/09/18 07:39:21;;;;;;;1.73;1.63;;;;;;;;;;5134782;28;20246;-92
2023/09/18 07:41:49;;;;;;;3.55;2.17;;;;;;;;;;5134698;27;20191;-91
2023/09/18 07:44:22;;;;;;;1.95;1.80;;;;;;;;;;5138905;27;20187;-91
2023/09/18 07:46:50;;;;;;;1.80;1.70;;;;;;;;;;5139076;27;20191;-91
2023/09/18 07:49:17;;;;;;;2.35;1.90;;;;;;;;;;5138562;27;20235;-90
2023/09/18 07:51:46;;;;;;;2.38;1.90;;;;;;;;;;5127877;28;20204;-93
2023/09/18 07:54:16;;;;;;;4.47;2.08;;;;;;;;;;5133973;28;20267;-92
2023/09/18 07:56:44;;;;;;;3.75;2.03;;;;;;;;;;5131926;28;20199;-92
2023/09/18 07:59:14;;;;;;;3.08;2.25;;;;;;;;;;5132056;28;20254;-92
2023/09/18 08:01:43;;;;;;;3.65;2.40;;;;;;;;;;5131116;28;20222;-93
2023/09/18 08:04:11;;;;;;;1.88;1.70;;;;;;;;;;5130838;28;20207;-92
2023/09/18 08:06:40;;;;;;;3.67;2.47;;;;;;;;;;5132664;28;20207;-92
2023/09/18 08:09:13;;;;;;;3.35;1.80;;;;;;;;;;5132122;28;20216;-92
2023/09/18 08:11:42;;;;;;;1.75;1.65;;;;;;;;;;5134063;28;20187;-91
2023/09/18 08:14:09;;;;;;;2.78;1.90;;;;;;;;;;5135272;28;20207;-91
2023/09/18 08:16:38;;;;;;;2.95;1.90;;;;;;;;;;5132103;28;20251;-92
2023/09/18 08:19:07;;;;;;;4.53;2.20;;;;;;;;;;5135452;28;20219;-93
2023/09/18 08:21:35;;;;;;;3.67;2.38;;;;;;;;;;5136669;28;20191;-92
2023/09/18 08:24:02;;;;;;;22.25;3.50;;;;;;;;;;5137271;27;20203;-91
2023/09/18 08:26:30;;;;;;;4.80;3.05;;;;;;;;;;5135030;27;20203;-92
2023/09/18 08:28:57;;;;;;;4.15;2.22;;;;;;;;;;5134153;27;20219;-92
2023/09/18 08:31:27;;;;;;;3.33;1.90;;;;;;;;;;5136410;28;20242;-92
2023/09/18 08:33:54;;;;;;;3.90;2.22;;;;;;;;;;5137198;27;20195;-92
2023/09/18 08:36:23;;;;;;;3.70;2.05;;;;;;;;;;5141751;27;20230;-91
2023/09/18 08:38:51;;;;;;;2.63;2.00;;;;;;;;;;5139803;28;20215;-92
2023/09/18 08:41:20;;;;;;;2.47;1.88;;;;;;;;;;5138513;28;20179;-92
2023/09/18 08:43:49;;;;;;;5.03;2.97;;;;;;;;;;5140236;27;20203;-92
2023/09/18 08:46:17;;;;;;;2.72;2.47;;;;;;;;;;5141044;27;20191;-91
2023/09/18 08:48:45;;;;;;;4.93;2.95;;;;;;;;;;5139124;28;20223;-93
2023/09/18 08:51:13;;;;;;;2.70;2.28;;;;;;;;;;5140446;28;20218;-91
2023/09/18 08:53:42;;;;;;;2.67;1.83;;;;;;;;;;5139795;27;20180;-92
2023/09/18 08:56:10;;;;;;;4.45;2.05;;;;;;;;;;5136908;27;20223;-93
2023/09/18 08:58:42;;;;;;;2.95;2.58;;;;;;;;;;5134772;27;20203;-92
2023/09/18 09:01:10;;;;;;;4.50;2.65;;;;;;;;;;5140487;28;20188;-92
2023/09/18 09:03:39;;;;;;;2.92;2.15;;;;;;;;;;5137978;27;20645;-92
2023/09/18 09:06:07;;;;;;;2.25;1.65;;;;;;;;;;5136033;28;20259;-91
2023/09/18 09:08:35;;;;;;;4.30;1.95;;;;;;;;;;5137045;28;20219;-93
2023/09/18 09:11:05;;;;;;;4.53;2.00;;;;;;;;;;5136961;28;20203;-91
2023/09/18 09:13:32;;;;;;;5.05;1.90;;;;;;;;;;5140233;27;20192;-92
2023/09/18 09:16:01;;;;;;;3.22;2.90;;;;;;;;;;5140191;27;20216;-95
2023/09/18 09:18:31;;;;;;;4.30;1.92;;;;;;;;;;5139441;27;20223;-91
2023/09/18 09:21:01;;;;;;;2.90;1.90;;;;;;;;;;5141124;27;20190;-91
2023/09/18 09:23:30;;;;;;;4.88;1.88;;;;;;;;;;5141816;27;20179;-90
2023/09/18 09:26:17;;;;;;;3.63;2.22;;;;;;;;;;5141429;27;20196;-90
2023/09/18 09:28:45;;;;;;;4.65;2.28;;;;;;;;;;5140807;27;20213;-92
2023/09/18 09:31:13;;;;;;;2.47;1.95;;;;;;;;;;5138213;28;20206;-92
2023/09/18 09:33:53;;;;;;;5.90;1.85;;;;;;;;;;5136950;27;20190;-92
2023/09/18 09:36:20;;;;;;;3.78;2.85;;;;;;;;;;5136709;28;20215;-90
2023/09/18 09:38:49;;;;;;;3.25;2.60;;;;;;;;;;5138192;27;20219;-92
2023/09/18 09:41:18;;;;;;;3.58;1.83;;;;;;;;;;5139728;28;20192;-91
2023/09/18 09:43:46;;;;;;;3.90;1.73;;;;;;;;;;5138554;27;20201;-91
2023/09/18 09:46:18;;;;;;;1.77;1.67;;;;;;;;;;5139475;27;20202;-91
2023/09/18 09:49:04;;;;;;;1.90;1.60;;;;;;;;;;5139945;28;20287;-91
2023/09/18 09:51:32;;;;;;;3.53;1.95;;;;;;;;;;5140422;28;20188;-91
2023/09/18 09:54:00;;;;;;;2.50;1.67;;;;;;;;;;5140716;28;20246;-93
2023/09/18 09:56:48;;;;;;;3.92;2.20;;;;;;;;;;5139900;28;20216;-90
2023/09/18 09:59:17;;;;;;;7.75;2.75;;;;;;;;;;5138955;28;20219;-92
2023/09/18 10:01:48;;;;;;;4.10;1.88;;;;;;;;;;5140101;28;20263;-90
2023/09/18 10:04:18;;;;;;;1.60;1.50;;;;;;;;;;5140457;28;20205;-91
2023/09/18 10:06:49;;;;;;;3.47;2.15;;;;;;;;;;5139583;28;20200;-93
2023/09/18 10:09:17;;;;;;;1.70;1.50;;;;;;;;;;5140351;27;20207;-91
2023/09/18 10:11:50;;;;;;;2.75;1.50;;;;;;;;;;5139553;28;20204;-91
2023/09/18 10:14:22;;;;;;;2.92;1.67;;;;;;;;;;5138678;28;20206;-92
2023/09/18 10:16:55;;;;;;;2.17;1.85;;;;;;;;;;5139866;28;20243;-92
2023/09/18 10:19:44;;;;;;;3.35;1.92;;;;;;;;;;5136109;28;20287;-92
2023/09/18 10:22:20;;;;;;;2.58;2.13;;;;;;;;;;5138124;27;20188;-92
2023/09/18 10:24:49;;;;;;;2.47;1.58;;;;;;;;;;5137845;27;20224;-91
2023/09/18 10:27:21;;;;;;;2.70;1.83;;;;;;;;;;5134939;27;20187;-93
2023/09/18 10:29:51;;;;;;;4.57;2.60;;;;;;;;;;5133306;27;20216;-92
2023/09/18 10:32:20;;;;;;;1.95;1.80;;;;;;;;;;5133562;27;20214;-92
2023/09/18 10:34:49;;;;;;;6.90;2.22;;;;;;;;;;5134535;28;20210;-92
2023/09/18 10:37:17;;;;;;;2.28;1.65;;;;;;;;;;5133051;27;20283;-91
2023/09/18 10:39:45;;;;;;;2.47;2.17;;;;;;;;;;5133801;27;20246;-93
2023/09/18 10:42:14;;;;;;;2.10;1.50;;;;;;;;;;5131581;27;20215;-91
2023/09/18 10:44:43;;;;;;;2.92;1.95;;;;;;;;;;5133603;27;20211;-89
2023/09/18 10:47:14;;;;;;;2.55;1.85;;;;;;;;;;5116609;28;20640;-91
2023/09/18 10:49:42;;;;;;;2.20;1.83;;;;;;;;;;5115779;28;20237;-91
2023/09/18 10:52:14;;;;;;;2.25;1.48;;;;;;;;;;5119198;28;20263;-89
2023/09/18 10:54:41;;;;;;;2.33;1.73;;;;;;;;;;5115582;28;20206;-88
2023/09/18 10:57:09;;;;;;;3.58;1.70;;;;;;;;;;5115210;28;20255;-89
2023/09/18 10:59:47;;;;;;;1.60;1.50;;;;;;;;;;5121573;28;20254;-89
2023/09/18 11:02:16;;;;;;;1.90;1.50;;;;;;;;;;5114669;28;20267;-89
2023/09/18 11:04:43;;;;;;;3.13;1.30;;;;;;;;;;5114301;28;20298;-88
2023/09/18 11:07:21;;;;;;;1.48;1.33;;;;;;;;;;5114198;28;20195;-86
2023/09/18 11:09:49;;;;;;;2.67;1.42;;;;;;;;;;5114032;28;20707;-87
2023/09/18 11:12:18;;;;;;;1.27;1.17;;;;;;;;;;5114105;28;20199;-88
2023/09/18 11:14:52;;;;;;;1.58;1.48;;;;;;;;;;5114935;28;20203;-89
2023/09/18 11:17:34;;;;;;;3.28;1.60;;;;;;;;;;5114337;27;20648;-91
2023/09/18 11:20:13;;;;;;;1.90;1.45;;;;;;;;;;5114786;28;20250;-89
2023/09/18 11:22:46;;;;;;;1.88;1.63;;;;;;;;;;5114439;28;20218;-89
2023/09/18 11:25:38;;;;;;;1.65;1.35;;;;;;;;;;5114154;28;20245;-89
2023/09/18 11:28:09;;;;;;;1.50;1.40;;;;;;;;;;5115016;28;20211;-89
2023/09/18 11:30:41;;;;;;;2.20;1.42;;;;;;;;;;5114378;28;20688;-89
2023/09/18 11:33:08;;;;;;;1.15;1.10;;;;;;;;;;5115004;28;20206;-88
2023/09/18 11:35:37;;;;;;;2.38;1.60;;;;;;;;;;5114502;28;20221;-89
2023/09/18 11:38:07;;;;;;;1.38;1.23;;;;;;;;;;5113817;28;20230;-90
2023/09/18 11:40:41;;;;;;;1.73;1.63;;;;;;;;;;5114690;28;20303;-89
2023/09/18 11:43:26;;;;;;;2.28;1.27;;;;;;;;;;5114924;28;20231;-89
2023/09/18 11:45:56;;;;;;;4.75;1.50;;;;;;;;;;5114491;28;20665;-89
2023/09/18 11:48:27;;;;;;;1.50;1.40;;;;;;;;;;5114403;28;20302;-89
2023/09/18 11:50:55;;;;;;;1.08;1.08;;;;;;;;;;5114649;28;20283;-90
2023/09/18 11:53:25;;;;;;;4.45;1.10;;;;;;;;;;5114281;28;20282;-89
2023/09/18 11:55:53;;;;;;;1.20;1.20;;;;;;;;;;5114275;28;20202;-91
2023/09/18 11:58:23;;;;;;;1.20;1.13;;;;;;;;;;5113985;28;20719;-91
2023/09/18 12:00:51;;;;;;;2.72;1.48;;;;;;;;;;5114499;28;20191;-91
2023/09/18 12:03:28;;;;;;;2.72;1.67;;;;;;;;;;5114585;28;20664;-90
2023/09/18 12:05:58;;;;;;;1.48;1.38;;;;;;;;;;5114852;28;20211;-90
2023/09/18 12:08:27;;;;;;;3.03;1.55;;;;;;;;;;5114412;28;20234;-91
2023/09/18 12:10:55;;;;;;;1.75;1.58;;;;;;;;;;5114668;28;20211;-90
2023/09/18 12:13:23;;;;;;;4.55;1.75;;;;;;;;;;5114493;28;20671;-89
2023/09/18 12:15:50;;;;;;;1.65;1.55;;;;;;;;;;5114120;28;20214;-90
2023/09/18 12:18:19;;;;;;;1.65;1.55;;;;;;;;;;5113336;28;20669;-89
2023/09/18 12:20:48;;;;;;;1.35;1.25;;;;;;;;;;5113558;28;20729;-90
2023/09/18 12:23:16;;;;;;;1.27;1.10;;;;;;;;;;5121539;28;20208;-87
2023/09/18 12:25:46;;;;;;;3.75;1.48;;;;;;;;;;5136799;28;20192;-89
2023/09/18 12:28:16;;;;;;;1.77;1.20;;;;;;;;;;5137763;28;20227;-88
2023/09/18 12:30:46;;;;;;;1.70;1.60;;;;;;;;;;5131454;28;20258;-89
2023/09/18 12:33:14;;;;;;;1.50;1.30;;;;;;;;;;5115699;28;20223;-90
2023/09/18 12:35:43;;;;;;;1.30;1.17;;;;;;;;;;5124145;28;20242;-90
2023/09/18 12:38:19;;;;;;;1.35;1.25;;;;;;;;;;5114753;28;20234;-90
2023/09/18 12:40:47;;;;;;;1.40;1.30;;;;;;;;;;5114715;28;20225;-90
2023/09/18 12:43:16;;;;;;;1.80;1.30;;;;;;;;;;5114660;28;20644;-91
2023/09/18 12:45:45;;;;;;;1.20;1.10;;;;;;;;;;5115107;28;20200;-90
2023/09/18 12:48:14;;;;;;;1.50;1.40;;;;;;;;;;5115086;28;20219;-89
2023/09/18 12:50:43;;;;;;;1.40;1.30;;;;;;;;;;5114366;28;20204;-91
2023/09/18 12:53:13;;;;;;;1.23;1.20;;;;;;;;;;5115199;28;20543;-91
2023/09/18 12:55:41;;;;;;;2.83;1.33;;;;;;;;;;5114801;27;20606;-90
2023/09/18 12:58:13;;;;;;;2.00;1.20;;;;;;;;;;5115500;28;20262;-91
2023/09/18 13:00:49;;;;;;;1.60;1.10;;;;;;;;;;5115312;28;20203;-89
2023/09/18 13:03:17;;;;;;;1.40;1.02;;;;;;;;;;5115019;28;20203;-90
2023/09/18 13:05:48;;;;;;;1.50;1.40;;;;;;;;;;5114073;27;20209;-89
2023/09/18 13:08:15;;;;;;;4.03;1.77;;;;;;;;;;5114094;28;20216;-90
2023/09/18 13:10:45;;;;;;;1.20;1.10;;;;;;;;;;5114988;28;20227;-90
2023/09/18 13:13:20;;;;;;;1.75;1.25;;;;;;;;;;5113486;28;20234;-90
2023/09/18 13:15:48;;;;;;;4.57;2.20;;;;;;;;;;5113338;28;20210;-89
2023/09/18 13:18:17;;;;;;;2.38;1.30;;;;;;;;;;5112876;28;20310;-89
2023/09/18 13:20:46;;;;;;;2.30;1.48;;;;;;;;;;5114590;28;20262;-90
2023/09/18 13:23:13;;;;;;;2.50;1.60;;;;;;;;;;5118848;28;20229;-89
2023/09/18 13:25:44;;;;;;;1.23;1.10;;;;;;;;;;5118527;28;20278;-89
2023/09/18 13:28:12;;;;;;;1.35;1.25;;;;;;;;;;5118369;28;20754;-91
2023/09/18 13:30:42;;;;;;;1.30;1.20;;;;;;;;;;5119406;28;20203;-90
2023/09/18 13:33:11;;;;;;;1.40;1.30;;;;;;;;;;5119492;28;20709;-89
2023/09/18 13:35:40;;;;;;;1.27;1.20;;;;;;;;;;5120867;28;20290;-90
2023/09/18 13:38:11;;;;;;;2.20;1.33;;;;;;;;;;5119391;28;20231;-91
2023/09/18 13:40:38;;;;;;;1.52;1.35;;;;;;;;;;5118668;28;20195;-90
2023/09/18 13:43:07;;;;;;;1.65;1.02;;;;;;;;;;5118533;27;20210;-90
2023/09/18 13:45:35;;;;;;;1.20;1.10;;;;;;;;;;5118614;28;20329;-90
2023/09/18 13:48:03;;;;;;;1.30;1.20;;;;;;;;;;5120440;28;20661;-91
2023/09/18 13:50:30;;;;;;;1.63;1.38;;;;;;;;;;5117389;27;20287;-90
2023/09/18 13:52:59;;;;;;;1.30;1.20;;;;;;;;;;5118789;28;20263;-89
2023/09/18 13:55:28;;;;;;;1.08;1.00;;;;;;;;;;5115719;28;20195;-91
2023/09/18 13:57:55;;;;;;;1.38;1.27;;;;;;;;;;5118653;28;20772;-90
2023/09/18 14:00:25;;;;;;;1.67;1.58;;;;;;;;;;5118871;28;20661;-87
2023/09/18 14:02:53;;;;;;;1.77;1.48;;;;;;;;;;5118875;28;20549;-90
2023/09/18 14:05:20;;;;;;;2.22;1.83;;;;;;;;;;5117539;28;20303;-90
2023/09/18 14:07:48;;;;;;;1.42;1.20;;;;;;;;;;5117321;27;20206;-89
2023/09/18 14:10:17;;;;;;;1.35;1.25;;;;;;;;;;5117888;28;20196;-89
2023/09/18 14:12:46;;;;;;;1.50;1.40;;;;;;;;;;5118634;27;20291;-90
2023/09/18 14:15:13;;;;;;;1.52;1.30;;;;;;;;;;5117928;28;20202;-90
2023/09/18 14:17:41;;;;;;;1.60;1.50;;;;;;;;;;5117751;28;20199;-88
2023/09/18 14:20:10;;;;;;;3.75;1.50;;;;;;;;;;5117629;28;20232;-90
2023/09/18 14:22:38;;;;;;;3.15;1.80;;;;;;;;;;5117570;28;20203;-90
2023/09/18 14:25:07;;;;;;;2.00;1.90;;;;;;;;;;5117787;28;20636;-89
2023/09/18 14:27:35;;;;;;;1.50;1.40;;;;;;;;;;5123174;28;20196;-89
2023/09/18 14:30:06;;;;;;;3.17;1.48;;;;;;;;;;5128216;28;20223;-89
2023/09/18 14:32:35;;;;;;;1.95;1.58;;;;;;;;;;5129298;28;20196;-92
2023/09/18 14:35:05;;;;;;;1.95;1.67;;;;;;;;;;5124063;28;20192;-91
2023/09/18 14:37:32;;;;;;;1.40;1.25;;;;;;;;;;5118248;28;20207;-93
2023/09/18 14:40:00;;;;;;;2.13;1.60;;;;;;;;;;5119626;28;20238;-92
2023/09/18 14:42:28;;;;;;;1.45;1.35;;;;;;;;;;5118446;28;20195;-92
2023/09/18 14:44:55;;;;;;;1.30;1.30;;;;;;;;;;5117890;28;20684;-91
2023/09/18 14:47:24;;;;;;;3.17;1.30;;;;;;;;;;5119104;28;20232;-92
2023/09/18 14:49:51;;;;;;;2.45;1.60;;;;;;;;;;5128753;28;20243;-92
2023/09/18 14:52:23;;;;;;;1.92;1.20;;;;;;;;;;5117044;28;20595;-91
2023/09/18 14:54:51;;;;;;;1.00;1.00;;;;;;;;;;5116909;28;20199;-91